Terminal Aerodrome Forecast
Issued by NWS Newport/Morehead City, NC

Home | Current Version | Previous Version | Text Only | Print | Product List | Glossary On
Versions: 1 2 3 4 5 6 7 8 9 10 11 12 13 14 15 16 17
000
FTUS42 KMHX 270731 AAA
TAFEWN
TAF AMD
KEWN 270731Z 2708/2806 18003KT P6SM SKC
     FM271900 VRB04KT P6SM VCSH SCT050 BKN090
     FM280200 36004KT P6SM SKC=

USA.gov is the U.S. government's official web portal to all federal, state and local government web resources and services.